Time;durP1;ratioP1;P1;durP2;ratioP2;P2;SDS_P1;SDS_P2;PMS_P1;PMS_P2;Temp;Humidity;BMP_temperature;BMP_pressure;BME280_temperature;BME280_humidity;BME280_pressure;Samples;Min_cycle;Max_cycle;Signal;HPM_P1;HPM_P2
2022/05/07 00:01:35;;;;;;;3.83;2.83;;;15.10;67.30;;;-142.21;100.00;112049.66;5054976;28;21129;-79
2022/05/07 00:04:03;;;;;;;3.57;3.23;;;15.10;66.60;;;-142.21;100.00;112049.66;5054480;28;20472;-77
2022/05/07 00:06:31;;;;;;;5.30;3.40;;;15.10;66.90;;;-142.21;100.00;112049.66;5054847;28;20472;-78
2022/05/07 00:08:58;;;;;;;4.23;3.03;;;15.10;67.60;;;-142.21;100.00;112049.66;5054963;28;20494;-78
2022/05/07 00:11:25;;;;;;;4.23;3.10;;;15.00;67.30;;;-142.21;100.00;112049.66;5045289;28;20461;-77
2022/05/07 00:13:52;;;;;;;3.73;3.00;;;14.90;67.50;;;-142.21;100.00;112049.66;5034777;28;20507;-77
2022/05/07 00:19:06;;;;;;;3.30;3.00;;;14.80;66.70;;;-142.21;100.00;112049.66;5034493;28;20432;-79
2022/05/07 00:21:33;;;;;;;3.17;2.87;;;14.80;67.00;;;-142.21;100.00;112049.66;5034941;28;20445;-80
2022/05/07 00:24:02;;;;;;;4.00;3.03;;;14.80;66.90;;;-142.21;100.00;112049.66;5034254;28;20492;-78
2022/05/07 00:26:29;;;;;;;3.57;3.00;;;14.70;67.60;;;-142.21;100.00;112049.66;5034092;28;20791;-78
2022/05/07 00:28:57;;;;;;;4.37;3.30;;;14.70;67.40;;;-142.21;100.00;112049.66;5034642;28;20453;-78
2022/05/07 00:31:24;;;;;;;5.13;3.23;;;14.70;67.10;;;-142.21;100.00;112049.66;5033945;28;20445;-78
2022/05/07 00:33:51;;;;;;;5.33;3.00;;;14.70;66.60;;;-142.21;100.00;112049.66;5046984;28;20540;-78
2022/05/07 00:36:20;;;;;;;3.53;3.17;;;14.70;66.60;;;-142.21;100.00;112049.66;5053893;28;20444;-79
2022/05/07 00:38:47;;;;;;;3.57;3.20;;;14.60;66.80;;;-142.21;100.00;112049.66;5054468;28;20444;-78
2022/05/07 00:41:14;;;;;;;4.37;3.40;;;14.60;67.50;;;-142.21;100.00;112049.66;5053858;28;20452;-78
2022/05/07 00:43:42;;;;;;;4.00;3.13;;;14.60;66.70;;;-142.21;100.00;112049.66;5053978;28;20456;-80
2022/05/07 00:46:11;;;;;;;5.17;3.23;;;14.60;67.40;;;-142.21;100.00;112049.66;5053655;28;20541;-79
2022/05/07 00:48:39;;;;;;;3.53;3.13;;;14.60;67.70;;;-142.21;100.00;112049.66;5053950;28;20471;-79
2022/05/07 00:53:54;;;;;;;3.57;2.90;;;14.60;67.80;;;-142.21;100.00;112049.66;5053508;28;20415;-77
2022/05/07 00:56:23;;;;;;;3.90;3.40;;;14.60;67.30;;;-142.21;100.00;112049.66;5033566;28;20532;-78
2022/05/07 00:58:56;;;;;;;3.53;2.70;;;14.60;66.80;;;-142.21;100.00;112049.66;5033419;28;20450;-78
2022/05/07 01:01:23;;;;;;;3.87;3.10;;;14.60;66.60;;;-142.21;100.00;112049.66;5037571;28;20440;-79
2022/05/07 01:03:51;;;;;;;5.63;2.70;;;14.60;66.30;;;-142.21;100.00;112049.66;5034094;28;20452;-79
2022/05/07 01:06:19;;;;;;;4.07;2.70;;;14.60;66.20;;;-142.21;100.00;112049.66;5048428;28;20537;-79
2022/05/07 01:08:48;;;;;;;3.30;3.00;;;14.60;66.40;;;-142.21;100.00;112049.66;5054026;28;20463;-79
2022/05/07 01:11:17;;;;;;;4.20;3.10;;;14.60;66.50;;;-142.21;100.00;112049.66;5053209;28;20543;-78
2022/05/07 01:13:47;;;;;;;2.83;2.63;;;14.50;66.70;;;-142.21;100.00;112049.66;5053264;28;20539;-79
2022/05/07 01:16:15;;;;;;;5.60;3.40;;;14.50;66.10;;;-142.21;100.00;112049.66;5053121;28;20523;-80
2022/05/07 01:18:44;;;;;;;3.50;2.87;;;14.50;66.20;;;-142.21;100.00;112049.66;5053657;28;20484;-79
2022/05/07 01:21:14;;;;;;;4.23;3.40;;;14.50;66.20;;;-142.21;100.00;112049.66;5052957;28;20455;-79
2022/05/07 01:23:43;;;;;;;5.87;2.80;;;14.50;66.20;;;-142.21;100.00;112049.66;5053361;28;20432;-79
2022/05/07 01:26:11;;;;;;;3.37;3.07;;;14.50;66.30;;;-142.21;100.00;112049.66;5052613;28;20953;-78
2022/05/07 01:28:39;;;;;;;3.23;2.70;;;14.40;67.40;;;-142.21;100.00;112049.66;5053533;28;20468;-79
2022/05/07 01:31:07;;;;;;;3.97;3.10;;;14.40;66.40;;;-142.21;100.00;112049.66;5053130;28;20460;-77
2022/05/07 01:33:35;;;;;;;3.80;2.43;;;14.30;66.60;;;-142.21;100.00;112049.66;5053152;28;20448;-79
2022/05/07 01:36:07;;;;;;;4.83;3.47;;;14.30;66.20;;;-142.21;100.00;112049.66;5053280;28;20443;-79
2022/05/07 01:38:35;;;;;;;3.00;2.80;;;14.30;66.60;;;-142.21;100.00;112049.66;5053180;28;20476;-79
2022/05/07 01:41:03;;;;;;;3.30;3.00;;;14.30;67.50;;;-142.21;100.00;112049.66;5052841;28;20960;-79
2022/05/07 01:43:32;;;;;;;3.10;2.90;;;14.20;67.00;;;-142.21;100.00;112049.66;5052650;28;20482;-78
2022/05/07 01:46:00;;;;;;;3.47;3.17;;;14.20;66.50;;;-142.21;100.00;112049.66;5052974;28;20529;-79
2022/05/07 01:48:26;;;;;;;5.83;3.53;;;14.20;67.10;;;-142.21;100.00;112049.66;5052528;28;20442;-79
2022/05/07 01:50:54;;;;;;;3.27;2.90;;;14.20;67.50;;;-142.21;100.00;112049.66;5052971;28;20448;-80
2022/05/07 01:53:22;;;;;;;4.93;3.97;;;14.10;66.40;;;-142.21;100.00;112049.66;5052547;28;20509;-79
2022/05/07 01:55:51;;;;;;;3.80;3.50;;;14.20;66.30;;;-142.21;100.00;112049.66;5052769;28;20452;-79
2022/05/07 01:58:18;;;;;;;3.47;2.93;;;14.20;67.40;;;-142.21;100.00;112049.66;5052100;28;20484;-78
2022/05/07 02:00:45;;;;;;;4.33;3.23;;;14.10;68.00;;;-142.21;100.00;112049.66;5034381;28;20476;-78
2022/05/07 02:03:12;;;;;;;5.53;3.30;;;14.00;68.50;;;-142.21;100.00;112049.66;5032041;28;20452;-78
2022/05/07 02:05:39;;;;;;;4.90;3.20;;;13.90;68.80;;;-142.21;100.00;112049.66;5032826;28;20445;-78
2022/05/07 02:08:07;;;;;;;4.87;3.23;;;13.90;67.20;;;-142.21;100.00;112049.66;5032976;28;20444;-78
2022/05/07 02:10:34;;;;;;;3.73;3.20;;;13.80;67.30;;;-142.21;100.00;112049.66;5031652;28;20504;-79
2022/05/07 02:13:03;;;;;;;4.57;3.00;;;13.70;67.70;;;-142.21;100.00;112049.66;5032764;28;20942;-78
2022/05/07 02:15:30;;;;;;;3.53;3.23;;;13.80;67.50;;;-142.21;100.00;112049.66;5032137;28;20449;-80
2022/05/07 02:17:57;;;;;;;4.73;3.10;;;13.70;67.60;;;-142.21;100.00;112049.66;5032876;28;20576;-78
2022/05/07 02:20:25;;;;;;;3.83;3.13;;;13.80;68.20;;;-142.21;100.00;112049.66;5031778;28;20445;-78
2022/05/07 02:22:56;;;;;;;3.43;2.90;;;13.80;68.90;;;-142.21;100.00;112049.66;5032736;28;20445;-79
2022/05/07 02:25:23;;;;;;;3.43;3.13;;;13.80;67.80;;;-142.21;100.00;112049.66;5031773;28;20910;-78
2022/05/07 02:27:52;;;;;;;3.70;3.30;;;13.80;67.50;;;-142.21;100.00;112049.66;5032493;28;20542;-80
2022/05/07 02:30:21;;;;;;;4.60;3.30;;;13.70;67.00;;;-142.21;100.00;112049.66;5031827;28;20485;-78
2022/05/07 02:32:49;;;;;;;5.27;3.33;;;13.70;66.80;;;-142.21;100.00;112049.66;5032180;28;20439;-80
2022/05/07 02:35:16;;;;;;;3.30;3.00;;;13.70;67.20;;;-142.21;100.00;112049.66;5031747;28;20453;-79
2022/05/07 02:37:44;;;;;;;3.27;2.97;;;13.70;66.90;;;-142.21;100.00;112049.66;5032750;28;20496;-80
2022/05/07 02:40:12;;;;;;;3.60;3.30;;;13.80;66.70;;;-142.21;100.00;112049.66;5032101;28;20457;-80
2022/05/07 02:42:39;;;;;;;3.17;2.70;;;13.80;66.70;;;-142.21;100.00;112049.66;5032319;28;20532;-78
2022/05/07 02:45:10;;;;;;;3.50;3.13;;;13.70;66.30;;;-142.21;100.00;112049.66;5032168;28;20572;-79
2022/05/07 02:47:41;;;;;;;3.07;2.70;;;13.70;65.90;;;-142.21;100.00;112049.66;5031686;28;20472;-80
2022/05/07 02:50:12;;;;;;;4.33;2.80;;;13.70;65.90;;;-142.21;100.00;112049.66;5032472;28;20525;-79
2022/05/07 02:52:39;;;;;;;4.00;2.90;;;13.60;66.20;;;-142.21;100.00;112049.66;5032109;28;20512;-79
2022/05/07 02:55:09;;;;;;;3.80;3.40;;;13.60;66.20;;;-142.21;100.00;112049.66;5052189;28;20459;-78
2022/05/07 02:57:36;;;;;;;3.20;2.90;;;13.50;66.70;;;-142.21;100.00;112049.66;5050956;28;20571;-79
2022/05/07 03:00:08;;;;;;;3.20;2.87;;;13.50;66.60;;;-142.21;100.00;112049.66;5052216;28;20474;-80
2022/05/07 03:02:35;;;;;;;3.73;3.30;;;13.50;67.60;;;-142.21;100.00;112049.66;5051368;28;20444;-80
2022/05/07 03:05:05;;;;;;;5.60;3.37;;;13.40;67.30;;;-142.21;100.00;112049.66;5052077;28;20498;-80
2022/05/07 03:07:32;;;;;;;3.70;3.37;;;13.40;67.80;;;-142.21;100.00;112049.66;5051269;28;20527;-80
2022/05/07 03:10:00;;;;;;;3.30;2.97;;;13.40;67.00;;;-142.21;100.00;112049.66;5052096;28;20531;-78
2022/05/07 03:12:28;;;;;;;4.10;3.17;;;13.30;66.90;;;-142.21;100.00;112049.66;5050963;28;20962;-79
2022/05/07 03:14:55;;;;;;;4.23;3.60;;;13.40;66.70;;;-142.21;100.00;112049.66;5052202;28;20808;-79
2022/05/07 03:17:23;;;;;;;4.20;2.90;;;13.40;67.50;;;-142.21;100.00;112049.66;5051105;28;20454;-80
2022/05/07 03:19:50;;;;;;;3.83;3.17;;;13.40;66.70;;;-142.21;100.00;112049.66;5051957;28;20448;-80
2022/05/07 03:22:18;;;;;;;3.63;2.90;;;13.50;66.80;;;-142.21;100.00;112049.66;5055169;28;20483;-78
2022/05/07 03:24:46;;;;;;;3.90;3.57;;;13.40;67.60;;;-142.21;100.00;112049.66;5055476;28;20454;-80
2022/05/07 03:27:13;;;;;;;3.57;3.07;;;13.40;66.50;;;-142.21;100.00;112049.66;5055520;28;20483;-80
2022/05/07 03:29:40;;;;;;;3.50;3.20;;;13.30;66.70;;;-142.21;100.00;112049.66;5047036;28;20869;-80
2022/05/07 03:32:10;;;;;;;3.50;3.03;;;13.30;67.00;;;-142.21;100.00;112049.66;5035765;28;20536;-79
2022/05/07 03:34:37;;;;;;;5.10;2.97;;;13.30;67.30;;;-142.21;100.00;112049.66;5035432;28;20433;-78
2022/05/07 03:37:04;;;;;;;3.30;3.00;;;13.30;67.20;;;-142.21;100.00;112049.66;5035661;28;20535;-79
2022/05/07 03:39:33;;;;;;;3.40;3.10;;;13.20;67.30;;;-142.21;100.00;112049.66;5051320;28;20568;-79
2022/05/07 03:42:00;;;;;;;3.27;2.80;;;13.20;67.50;;;-142.21;100.00;112049.66;5055305;28;20557;-80
2022/05/07 03:44:27;;;;;;;4.30;2.57;;;13.20;67.70;;;-142.21;100.00;112049.66;5054495;28;20475;-80
2022/05/07 03:46:55;;;;;;;4.13;2.90;;;13.20;68.80;;;-142.21;100.00;112049.66;5055025;28;20518;-80
2022/05/07 03:49:22;;;;;;;4.27;2.80;;;13.20;67.10;;;-142.21;100.00;112049.66;5054959;28;20462;-78
2022/05/07 03:54:35;;;;;;;3.63;3.00;;;13.20;67.00;;;-142.21;100.00;112049.66;5055005;28;20439;-80
2022/05/07 03:57:02;;;;;;;4.23;3.13;;;13.20;66.80;;;-142.21;100.00;112049.66;5055167;28;20448;-79
2022/05/07 03:59:30;;;;;;;3.30;3.00;;;13.20;66.30;;;-142.21;100.00;112049.66;5044320;28;20572;-79
2022/05/07 04:01:57;;;;;;;3.60;3.30;;;13.10;66.20;;;-142.21;100.00;112049.66;5034871;28;20987;-80
2022/05/07 04:04:24;;;;;;;3.63;3.33;;;13.20;66.10;;;-142.21;100.00;112049.66;5034544;28;20507;-79
2022/05/07 04:06:52;;;;;;;4.63;3.23;;;13.20;65.90;;;-142.21;100.00;112049.66;5048320;28;20841;-79
2022/05/07 04:09:19;;;;;;;4.07;3.30;;;13.30;67.30;;;-142.21;100.00;112049.66;5054408;28;20451;-78
2022/05/07 04:11:47;;;;;;;4.83;3.37;;;13.30;66.60;;;-142.21;100.00;112049.66;5054769;28;20456;-78
2022/05/07 04:14:14;;;;;;;4.17;3.10;;;13.30;67.60;;;-142.21;100.00;112049.66;5054575;28;20963;-79
2022/05/07 04:16:42;;;;;;;3.23;2.93;;;13.30;67.70;;;-142.21;100.00;112049.66;5054093;28;20539;-77
2022/05/07 04:19:11;;;;;;;4.17;3.87;;;13.20;67.90;;;-142.21;100.00;112049.66;5054953;28;20527;-79
2022/05/07 04:21:38;;;;;;;6.53;3.10;;;13.20;67.50;;;-142.21;100.00;112049.66;5054569;28;20491;-77
2022/05/07 04:24:07;;;;;;;3.30;3.00;;;13.20;67.00;;;-142.21;100.00;112049.66;5054632;28;20506;-79
2022/05/07 04:26:34;;;;;;;4.23;3.17;;;13.10;68.20;;;-142.21;100.00;112049.66;5053887;28;20878;-79
2022/05/07 04:29:02;;;;;;;3.50;3.20;;;13.10;68.80;;;-142.21;100.00;112049.66;5054397;28;20536;-79
2022/05/07 04:31:29;;;;;;;4.67;3.40;;;13.10;68.80;;;-142.21;100.00;112049.66;5053761;28;20530;-80
2022/05/07 04:33:57;;;;;;;3.93;3.43;;;13.10;67.50;;;-142.21;100.00;112049.66;5054010;28;20531;-79
2022/05/07 04:36:25;;;;;;;3.77;3.20;;;13.10;67.20;;;-142.21;100.00;112049.66;5053834;28;20452;-79
2022/05/07 04:38:52;;;;;;;3.57;3.07;;;13.10;67.60;;;-142.21;100.00;112049.66;5045088;28;20489;-79
2022/05/07 04:41:19;;;;;;;4.23;3.60;;;13.10;67.30;;;-142.21;100.00;112049.66;5033717;28;20449;-77
2022/05/07 04:43:46;;;;;;;3.47;2.90;;;13.10;67.50;;;-142.21;100.00;112049.66;5033856;28;20453;-79
2022/05/07 04:46:14;;;;;;;4.40;3.30;;;13.10;67.30;;;-142.21;100.00;112049.66;5034464;28;20518;-79
2022/05/07 04:48:42;;;;;;;3.47;3.17;;;13.10;67.60;;;-142.21;100.00;112049.66;5033396;28;20955;-77
2022/05/07 04:51:09;;;;;;;5.50;3.27;;;13.10;68.60;;;-142.21;100.00;112049.66;5034415;28;20455;-79
2022/05/07 04:53:36;;;;;;;3.63;2.97;;;13.10;67.70;;;-142.21;100.00;112049.66;5035449;28;20536;-79
2022/05/07 04:56:04;;;;;;;3.73;3.10;;;13.10;67.90;;;-142.21;100.00;112049.66;5053953;28;20940;-79
2022/05/07 04:58:31;;;;;;;4.17;2.90;;;13.20;68.40;;;-142.21;100.00;112049.66;5051128;28;20520;-78
2022/05/07 05:00:58;;;;;;;3.87;3.47;;;13.30;69.00;;;-142.21;100.00;112049.66;5053993;28;20547;-78
2022/05/07 05:03:27;;;;;;;3.63;3.23;;;13.30;68.50;;;-142.21;100.00;112049.66;5053070;28;20479;-79
2022/05/07 05:05:54;;;;;;;3.90;3.57;;;13.30;68.90;;;-142.21;100.00;112049.66;5046670;28;20507;-79
2022/05/07 05:08:21;;;;;;;4.03;3.40;;;13.30;68.60;;;-142.21;100.00;112049.66;5032946;28;20481;-77
2022/05/07 05:10:48;;;;;;;3.40;3.10;;;13.40;68.90;;;-142.21;100.00;112049.66;5033960;28;20536;-79
2022/05/07 05:13:15;;;;;;;4.43;3.30;;;13.40;69.00;;;-142.21;100.00;112049.66;5033664;28;20551;-78
2022/05/07 05:15:43;;;;;;;5.07;3.27;;;13.50;69.40;;;-142.21;100.00;112049.66;5033399;28;20471;-79
2022/05/07 05:18:12;;;;;;;3.53;3.23;;;13.60;69.20;;;-142.21;100.00;112049.66;5033348;28;20993;-77
2022/05/07 05:20:40;;;;;;;3.97;3.30;;;13.60;69.50;;;-142.21;100.00;112049.66;5033155;28;20532;-80
2022/05/07 05:23:08;;;;;;;3.97;3.57;;;13.70;70.10;;;-142.21;100.00;112049.66;5033274;28;20449;-79
2022/05/07 05:25:35;;;;;;;4.30;3.60;;;13.70;70.60;;;-142.21;100.00;112049.66;5033004;28;20453;-78
2022/05/07 05:28:02;;;;;;;3.30;3.00;;;13.70;71.20;;;-142.21;100.00;112049.66;5033257;28;20473;-79
2022/05/07 05:30:29;;;;;;;6.60;4.10;;;13.70;70.70;;;-142.21;100.00;112049.66;5033070;28;20511;-78
2022/05/07 05:32:57;;;;;;;7.10;3.60;;;13.80;70.40;;;-142.21;100.00;112049.66;5033204;28;20485;-78
2022/05/07 05:35:25;;;;;;;6.67;3.90;;;13.90;70.50;;;-142.21;100.00;112049.66;5032642;28;20495;-78
2022/05/07 05:37:54;;;;;;;3.60;3.30;;;14.00;70.80;;;-142.21;100.00;112049.66;5033221;28;20461;-78
2022/05/07 05:40:22;;;;;;;6.67;3.73;;;14.10;70.70;;;-142.21;100.00;112049.66;5033250;28;20540;-78
2022/05/07 05:42:49;;;;;;;4.37;3.53;;;14.20;70.30;;;-142.21;100.00;112049.66;5033275;28;20503;-80
2022/05/07 05:45:17;;;;;;;4.27;3.57;;;14.30;70.00;;;-142.21;100.00;112049.66;5032092;28;20580;-78
2022/05/07 05:47:44;;;;;;;6.60;3.93;;;14.50;69.50;;;-142.21;100.00;112049.66;5032646;28;20453;-78
2022/05/07 05:50:11;;;;;;;4.13;3.73;;;14.60;69.30;;;-142.21;100.00;112049.66;5033265;28;20477;-78
2022/05/07 05:52:38;;;;;;;4.07;3.53;;;14.80;68.70;;;-142.21;100.00;112049.66;5032183;28;20453;-77
2022/05/07 05:55:08;;;;;;;4.13;3.20;;;14.90;68.00;;;-142.21;100.00;112049.66;5032800;28;20492;-78
2022/05/07 05:57:35;;;;;;;3.73;3.43;;;15.00;67.00;;;-142.21;100.00;112049.66;5032494;28;20468;-78
2022/05/07 06:00:03;;;;;;;8.03;3.77;;;15.20;66.70;;;-142.21;100.00;112049.66;5032834;28;20496;-78
2022/05/07 06:02:30;;;;;;;3.67;3.10;;;15.30;67.60;;;-142.21;100.00;112049.66;5032854;28;20445;-78
2022/05/07 06:04:58;;;;;;;3.47;3.17;;;15.30;68.50;;;-142.21;100.00;112049.66;5032963;28;20844;-78
2022/05/07 06:07:25;;;;;;;3.23;2.93;;;15.40;67.70;;;-142.21;100.00;112049.66;5032080;28;20449;-79
2022/05/07 06:09:52;;;;;;;4.07;3.67;;;15.50;66.10;;;-142.21;100.00;112049.66;5032570;28;20445;-78
2022/05/07 06:12:21;;;;;;;3.20;2.90;;;15.70;64.80;;;-142.21;100.00;112049.66;5032489;28;20480;-80
2022/05/07 06:14:49;;;;;;;3.37;3.07;;;15.80;65.00;;;-142.21;100.00;112049.66;5032608;28;20457;-78
2022/05/07 06:17:16;;;;;;;3.20;2.90;;;15.80;65.80;;;-142.21;100.00;112049.66;5032639;28;20457;-79
2022/05/07 06:19:43;;;;;;;3.40;3.10;;;15.80;66.90;;;-142.21;100.00;112049.66;5031916;28;20481;-78
2022/05/07 06:22:10;;;;;;;4.90;3.20;;;15.90;66.30;;;-142.21;100.00;112049.66;5037392;28;20968;-79
2022/05/07 06:27:31;;;;;;;4.07;3.30;;;16.20;66.00;;;-142.21;100.00;112049.66;5032508;28;20420;-78
2022/05/07 06:29:59;;;;;;;3.83;3.50;;;16.20;67.50;;;-142.21;100.00;112049.66;5032572;28;20854;-78
2022/05/07 06:32:32;;;;;;;3.53;3.23;;;16.30;66.70;;;-142.21;100.00;112049.66;5030410;28;20946;-78
2022/05/07 06:35:00;;;;;;;3.80;3.40;;;16.40;66.70;;;-142.21;100.00;112049.66;5032223;28;20426;-79
2022/05/07 06:37:27;;;;;;;5.63;2.70;;;16.50;65.40;;;-142.21;100.00;112049.66;5031588;28;20536;-78
2022/05/07 06:39:54;;;;;;;3.50;2.93;;;16.60;64.30;;;-142.21;100.00;112049.66;5032340;28;20489;-79
2022/05/07 06:42:23;;;;;;;3.93;3.50;;;16.70;66.00;;;-142.21;100.00;112049.66;5032374;28;20437;-77
2022/05/07 06:44:50;;;;;;;3.80;2.70;;;17.00;65.10;;;-142.21;100.00;112049.66;5031923;28;20535;-78
2022/05/07 06:47:18;;;;;;;2.80;2.30;;;20.00;60.40;;;-142.21;100.00;112049.66;5032234;28;20512;-79
2022/05/07 06:49:45;;;;;;;5.33;2.60;;;24.10;52.40;;;-142.21;100.00;112049.66;5046982;28;20495;-79
2022/05/07 06:52:13;;;;;;;2.60;2.40;;;27.30;46.10;;;-142.21;100.00;112049.66;5032382;28;20449;-79
2022/05/07 06:54:45;;;;;;;3.03;2.27;;;29.30;42.80;;;-142.21;100.00;112049.66;5031792;28;20206;-79
2022/05/07 06:57:13;;;;;;;3.97;2.00;;;30.40;40.30;;;-142.21;99.24;112049.66;5036221;28;20187;-80
2022/05/07 06:59:43;;;;;;;2.90;2.60;;;31.20;39.30;;;-142.21;99.44;112049.66;5055117;28;20277;-79
2022/05/07 07:02:10;;;;;;;3.20;2.30;;;32.20;37.30;;;-142.21;98.35;112049.66;5056283;28;20608;-79
2022/05/07 07:04:37;;;;;;;3.70;2.40;;;30.40;39.10;;;-142.21;97.12;112049.66;5055190;28;20212;-78
2022/05/07 07:07:05;;;;;;;2.80;2.60;;;29.10;41.00;;;-142.21;93.29;112049.66;5055783;28;20684;-79
2022/05/07 07:09:32;;;;;;;2.90;2.27;;;30.70;37.80;;;-142.21;95.71;112049.66;5055295;28;20208;-80
2022/05/07 07:12:04;;;;;;;2.60;2.40;;;31.30;37.00;;;-142.21;95.95;112049.66;5056145;28;20296;-79
2022/05/07 07:14:31;;;;;;;3.00;2.70;;;29.40;39.40;;;-142.21;99.32;112049.66;5055532;28;20201;-79
2022/05/07 07:16:59;;;;;;;2.80;2.60;;;27.10;42.40;;;-142.21;97.04;112049.66;5056046;28;20248;-79
2022/05/07 07:19:27;;;;;;;6.03;2.80;;;25.30;44.30;;;-142.21;97.34;112049.66;5055470;28;20657;-79
2022/05/07 07:21:54;;;;;;;5.60;3.20;;;24.10;46.90;;;-142.21;99.05;112049.66;5055970;28;20221;-78
2022/05/07 07:24:22;;;;;;;3.57;2.60;;;23.10;49.10;;;-142.21;96.04;112049.66;5055832;28;20205;-79
2022/05/07 07:26:49;;;;;;;2.80;2.50;;;23.30;49.40;;;-142.21;92.94;112049.66;5055003;28;20210;-79
2022/05/07 07:29:17;;;;;;;3.00;2.70;;;24.60;47.40;;;-142.21;98.42;112049.66;5055823;28;20280;-79
2022/05/07 07:31:44;;;;;;;2.73;2.53;;;24.90;47.20;;;-142.21;100.00;112049.66;5055039;28;20206;-78
2022/05/07 07:34:13;;;;;;;3.20;2.90;;;23.90;48.90;;;-142.21;99.26;112049.66;5055468;28;20294;-79
2022/05/07 07:36:40;;;;;;;4.13;2.93;;;23.60;49.40;;;-142.21;100.00;112049.66;5035357;28;20305;-79
2022/05/07 07:39:07;;;;;;;3.33;3.00;;;23.00;50.30;;;-142.21;100.00;112049.66;5035574;28;20230;-77
2022/05/07 07:41:35;;;;;;;3.20;2.90;;;22.30;51.90;;;-142.21;100.00;112049.66;5052089;28;20260;-79
2022/05/07 07:44:02;;;;;;;3.40;2.90;;;21.80;52.70;;;-142.21;100.00;112049.66;5054982;28;20245;-80
2022/05/07 07:49:15;;;;;;;3.80;2.77;;;22.10;54.20;;;-142.21;100.00;112049.66;5055291;28;20186;-79
2022/05/07 07:51:42;;;;;;;2.80;2.60;;;21.80;54.30;;;-142.21;100.00;112049.66;5054726;28;20662;-78
2022/05/07 07:54:09;;;;;;;5.67;3.20;;;21.50;54.70;;;-142.21;99.66;112049.66;5055335;28;20206;-80
2022/05/07 07:56:36;;;;;;;3.80;3.00;;;21.20;54.90;;;-142.21;95.89;112049.66;5054767;28;20546;-80
2022/05/07 07:59:04;;;;;;;3.17;2.70;;;20.90;55.30;;;-142.21;94.90;112049.66;5035161;28;20757;-79
2022/05/07 08:01:31;;;;;;;4.50;3.47;;;20.80;56.20;;;-142.21;95.16;112049.66;5034644;28;20213;-79
2022/05/07 08:03:58;;;;;;;5.00;3.13;;;20.70;56.50;;;-142.21;100.00;112049.66;5035319;28;20210;-79
2022/05/07 08:06:28;;;;;;;3.50;3.20;;;20.80;58.00;;;-142.21;96.97;112049.66;5034975;28;20314;-79
2022/05/07 08:11:46;;;;;;;4.57;3.43;;;20.90;56.70;;;-142.21;98.16;112049.66;5034443;28;20650;-80
2022/05/07 08:14:14;;;;;;;4.03;3.00;;;20.80;57.60;;;-142.21;99.13;112049.66;5034927;28;20218;-79
2022/05/07 08:16:43;;;;;;;3.93;3.30;;;20.90;57.80;;;-142.21;96.95;112049.66;5034388;28;20499;-80
2022/05/07 08:19:12;;;;;;;3.43;3.10;;;20.90;57.50;;;-142.21;97.24;112049.66;5033537;28;20318;-79
2022/05/07 08:21:40;;;;;;;5.20;3.07;;;20.90;57.50;;;-142.21;97.02;112049.66;5034353;28;20294;-79
2022/05/07 08:24:08;;;;;;;3.50;3.20;;;20.90;58.00;;;-142.21;92.48;112049.66;5034973;28;20241;-78
2022/05/07 08:26:35;;;;;;;3.63;3.20;;;21.00;56.30;;;-142.21;92.73;112049.66;5034034;28;20276;-79
2022/05/07 08:29:02;;;;;;;6.17;3.30;;;21.00;56.10;;;-142.21;96.73;112049.66;5035057;28;20205;-80
2022/05/07 08:31:30;;;;;;;4.17;2.90;;;21.10;57.30;;;-142.21;96.51;112049.66;5034433;28;20230;-79
2022/05/07 08:33:59;;;;;;;5.20;3.70;;;21.20;57.40;;;-142.21;93.88;112049.66;5034714;28;20211;-79
2022/05/07 08:36:27;;;;;;;3.63;3.10;;;21.20;56.70;;;-142.21;92.98;112049.66;5052580;28;20234;-79
2022/05/07 08:38:55;;;;;;;3.33;3.03;;;21.40;57.00;;;-142.21;91.49;112049.66;5053788;28;20210;-78
2022/05/07 08:41:23;;;;;;;3.27;2.93;;;21.40;56.60;;;-142.21;91.17;112049.66;5054082;28;20234;-79
2022/05/07 08:43:50;;;;;;;8.60;2.93;;;21.70;57.10;;;-142.21;89.77;112049.66;5053500;28;20229;-79
2022/05/07 08:46:20;;;;;;;5.63;3.53;;;21.80;56.00;;;-142.21;85.59;112049.66;5053877;28;20232;-79
2022/05/07 08:48:50;;;;;;;4.20;3.37;;;22.10;55.00;;;-142.21;84.26;112049.66;5053827;28;20577;-79
2022/05/07 08:51:21;;;;;;;4.83;3.10;;;22.30;54.60;;;-142.21;81.81;112049.66;5053673;28;20198;-80
2022/05/07 08:53:49;;;;;;;3.90;2.90;;;22.40;54.70;;;-142.21;71.66;112049.66;5053615;28;20284;-78
2022/05/07 08:56:19;;;;;;;4.17;2.90;;;22.70;55.50;;;-142.21;55.84;112049.66;5053959;28;20202;-76
2022/05/07 08:58:49;;;;;;;3.20;2.77;;;23.30;54.70;;;-142.21;45.80;112049.66;5053611;28;20297;-78
2022/05/07 09:01:17;;;;;;;5.27;3.00;;;23.80;53.80;;;-142.21;42.86;112049.66;5053800;28;20205;-79
2022/05/07 09:03:47;;;;;;;3.00;2.60;;;24.70;50.70;;;-142.21;45.65;112049.66;5053374;28;20203;-77
2022/05/07 09:06:21;;;;;;;2.60;2.37;;;25.00;50.30;;;-142.21;48.21;112049.66;5033678;28;20302;-77
2022/05/07 09:08:53;;;;;;;5.40;2.60;;;25.70;49.30;;;-142.21;49.30;112049.66;5033659;28;20631;-75
2022/05/07 09:11:23;;;;;;;2.87;2.57;;;27.10;47.50;;;-142.21;50.88;112049.66;5043226;28;20609;-79
2022/05/07 09:14:04;;;;;;;5.67;2.53;;;27.00;46.00;;;-142.21;53.03;112049.66;5052834;28;20626;-77
2022/05/07 09:16:41;;;;;;;4.97;2.70;;;26.60;46.50;;;-142.21;51.47;112049.66;5034040;28;20280;-77
2022/05/07 09:19:21;;;;;;;2.83;2.33;;;26.10;45.30;;;-142.21;53.14;112049.66;5033605;28;20260;-77
2022/05/07 09:21:54;;;;;;;2.77;2.57;;;25.80;47.20;;;-142.21;53.45;112049.66;5044955;28;20591;-77
2022/05/07 09:24:22;;;;;;;3.77;2.30;;;25.60;47.50;;;-142.21;55.75;112049.66;5052900;28;20726;-76
2022/05/07 09:26:51;;;;;;;3.83;2.77;;;25.50;47.80;;;-142.21;52.53;112049.66;5052670;28;20209;-76
2022/05/07 09:29:19;;;;;;;3.87;2.43;;;25.40;47.30;;;-142.21;53.88;112049.66;5053084;28;20574;-75
2022/05/07 09:31:48;;;;;;;2.83;2.50;;;25.30;47.70;;;-142.21;50.28;112049.66;5052616;28;20687;-78
2022/05/07 09:37:13;;;;;;;2.60;2.40;;;24.90;45.90;;;-142.21;50.22;112049.66;5033434;28;20198;-80
2022/05/07 09:39:40;;;;;;;2.77;2.50;;;24.90;47.60;;;-142.21;49.32;112049.66;5034769;28;20268;-77
2022/05/07 09:42:09;;;;;;;2.90;2.40;;;24.90;47.90;;;-142.21;54.21;112049.66;5052337;28;20206;-78
2022/05/07 09:44:37;;;;;;;2.47;2.27;;;24.90;47.70;;;-142.21;50.65;112049.66;5048756;28;20236;-79
2022/05/07 09:47:06;;;;;;;2.40;2.03;;;24.90;47.70;;;-142.21;47.29;112049.66;5053226;28;20271;-78
2022/05/07 09:49:37;;;;;;;2.33;2.13;;;25.10;46.30;;;-142.21;47.51;112049.66;5052914;28;20666;-77
2022/05/07 09:52:05;;;;;;;2.33;2.13;;;25.20;45.80;;;-142.21;48.74;112049.66;5052387;28;20222;-79
2022/05/07 09:57:31;;;;;;;2.57;2.00;;;25.40;46.90;;;-142.21;45.68;112049.66;5052685;28;20201;-78
2022/05/07 10:00:06;;;;;;;1.97;1.87;;;25.50;45.70;;;-142.21;47.02;112049.66;5052039;28;20763;-79
2022/05/07 10:02:59;;;;;;;3.10;2.10;;;25.60;46.70;;;-142.21;44.69;112049.66;5052767;28;20599;-79
2022/05/07 10:06:14;;;;;;;2.30;2.10;;;25.50;44.80;;;-142.21;44.01;112049.66;5066036;28;20194;-80
2022/05/07 10:08:58;;;;;;;2.63;2.27;;;25.40;44.20;;;-142.21;42.16;112049.66;4997588;28;20206;-80
2022/05/07 10:11:27;;;;;;;2.23;2.00;;;25.60;43.90;;;-142.21;41.36;112049.66;5032874;28;20260;-80
2022/05/07 10:13:58;;;;;;;1.70;1.60;;;25.60;43.60;;;-142.21;39.66;112049.66;5031674;28;20206;-80
2022/05/07 10:16:30;;;;;;;2.13;1.40;;;25.60;42.30;;;-142.21;36.20;112049.66;5032801;28;20197;-80
2022/05/07 10:19:09;;;;;;;2.03;1.77;;;25.40;39.90;;;-142.21;37.03;112049.66;5032421;28;20537;-78
2022/05/07 10:21:36;;;;;;;2.23;1.93;;;25.50;40.90;;;-142.21;40.05;112049.66;5032685;28;20218;-78
2022/05/07 10:24:05;;;;;;;1.73;1.60;;;25.60;42.60;;;-142.21;39.66;112049.66;5047583;28;20202;-79